createdAt,value
2019-06-07T00:00:45.819Z,17.15
2019-06-07T00:03:26.638Z,15.90
2019-06-07T00:05:46.597Z,17.10
2019-06-07T00:08:24.846Z,13.48
2019-06-07T00:10:47.562Z,17.70
2019-06-07T00:13:19.946Z,18.07
2019-06-07T00:15:48.083Z,14.13
2019-06-07T00:18:25.209Z,11.33
2019-06-07T00:20:48.724Z,13.55
2019-06-07T00:23:22.103Z,11.80
2019-06-07T00:25:49.224Z,12.10
2019-06-07T00:28:20.030Z,12.88
2019-06-07T00:30:51.917Z,14.80
2019-06-07T00:33:24.069Z,13.68
2019-06-07T00:35:51.729Z,11.05
2019-06-07T00:38:21.978Z,16.10
2019-06-07T00:40:51.543Z,13.30
2019-06-07T00:43:28.027Z,15.90
2019-06-07T00:45:52.001Z,14.00
2019-06-07T00:48:31.345Z,14.50
2019-06-07T00:50:52.653Z,12.05
2019-06-07T00:53:31.508Z,14.80
2019-06-07T00:55:53.768Z,14.85
2019-06-07T00:58:27.700Z,11.65
2019-06-07T01:00:55.150Z,12.23
2019-06-07T01:03:25.986Z,11.15
2019-06-07T01:06:01.891Z,17.12
2019-06-07T01:08:31.553Z,10.55
2019-06-07T01:11:00.921Z,11.63
2019-06-07T01:13:30.531Z,12.82
2019-06-07T01:16:03.122Z,15.43
2019-06-07T01:18:40.448Z,12.20
2019-06-07T01:21:04.115Z,16.48
2019-06-07T01:24:04.959Z,13.40
2019-06-07T01:26:04.943Z,14.63
2019-06-07T01:28:34.481Z,22.27
2019-06-07T01:31:04.086Z,12.70
2019-06-07T01:33:50.666Z,13.58
2019-06-07T01:36:17.920Z,17.50
2019-06-07T01:38:47.689Z,15.53
2019-06-07T01:41:19.962Z,13.43
2019-06-07T01:43:52.361Z,13.20
2019-06-07T01:46:25.346Z,13.43
2019-06-07T01:48:56.825Z,13.08
2019-06-07T01:51:27.887Z,13.23
2019-06-07T01:54:41.399Z,14.38
2019-06-07T01:56:29.861Z,12.33
2019-06-07T01:58:59.467Z,11.55
2019-06-07T02:01:34.614Z,15.72
2019-06-07T02:04:00.090Z,13.80
2019-06-07T02:06:32.049Z,16.10
2019-06-07T02:09:01.052Z,12.45
2019-06-07T02:11:32.117Z,12.60
2019-06-07T02:14:06.907Z,13.55
2019-06-07T02:16:36.391Z,15.47
2019-06-07T02:19:05.910Z,12.58
2019-06-07T02:21:35.467Z,15.08
2019-06-07T02:24:05.059Z,16.20
2019-06-07T02:26:34.563Z,12.10
2019-06-07T02:29:05.808Z,16.32
2019-06-07T02:31:39.057Z,16.35
2019-06-07T02:34:06.560Z,18.90
2019-06-07T02:36:41.207Z,10.78
2019-06-07T02:39:07.927Z,12.70
2019-06-07T02:41:39.871Z,14.87
2019-06-07T02:44:08.462Z,14.15
2019-06-07T02:46:46.787Z,16.55
2019-06-07T02:49:09.052Z,19.02
2019-06-07T02:51:41.395Z,14.23
2019-06-07T02:54:09.644Z,16.25
2019-06-07T02:56:55.657Z,22.02
2019-06-07T02:59:10.113Z,20.55
2019-06-07T03:01:42.594Z,18.37
2019-06-07T03:04:11.383Z,19.48
2019-06-07T03:06:44.458Z,16.12
2019-06-07T03:09:13.894Z,16.05
2019-06-07T03:11:45.759Z,15.55
2019-06-07T03:14:18.245Z,16.30
2019-06-07T03:17:07.420Z,16.95
2019-06-07T03:19:39.558Z,23.35
2019-06-07T03:22:09.026Z,18.15
2019-06-07T03:24:42.025Z,15.30
2019-06-07T03:27:33.998Z,15.08
2019-06-07T03:29:41.329Z,17.48
2019-06-07T03:32:10.849Z,19.90
2019-06-07T03:34:43.507Z,19.02
2019-06-07T03:37:11.660Z,18.67
2019-06-07T03:39:41.270Z,17.80
2019-06-07T03:42:11.577Z,16.30
2019-06-07T03:44:41.741Z,21.62
2019-06-07T03:47:11.228Z,18.48
2019-06-07T03:49:42.509Z,20.37
2019-06-07T03:52:12.404Z,20.50
2019-06-07T03:54:41.899Z,18.27
2019-06-07T03:57:11.344Z,21.68
2019-06-07T03:59:41.558Z,24.90
2019-06-07T04:02:11.108Z,21.17
2019-06-07T04:04:40.675Z,18.15
2019-06-07T04:07:10.046Z,18.15
2019-06-07T04:09:42.863Z,18.73
2019-06-07T04:12:11.087Z,21.48
2019-06-07T04:14:42.700Z,19.87
2019-06-07T04:17:11.624Z,21.37
2019-06-07T04:19:43.333Z,21.17
2019-06-07T04:22:12.232Z,20.62
2019-06-07T04:24:42.127Z,23.25
2019-06-07T04:27:11.694Z,15.35
2019-06-07T04:30:05.814Z,19.87
2019-06-07T04:32:17.978Z,20.72
2019-06-07T04:34:53.239Z,18.35
2019-06-07T04:37:25.464Z,15.90
2019-06-07T04:39:56.400Z,18.62
2019-06-07T04:42:25.928Z,19.77
2019-06-07T04:44:55.664Z,17.87
2019-06-07T04:47:26.757Z,21.73
2019-06-07T04:49:57.677Z,20.08
2019-06-07T04:52:27.119Z,17.20
2019-06-07T04:54:56.527Z,15.78
2019-06-07T04:57:26.007Z,18.82
2019-06-07T05:00:34.215Z,18.73
2019-06-07T05:02:26.492Z,17.35
2019-06-07T05:04:55.929Z,19.98
2019-06-07T05:07:26.747Z,17.52
2019-06-07T05:09:56.167Z,18.27
2019-06-07T05:12:25.671Z,20.08
2019-06-07T05:14:55.115Z,14.38
2019-06-07T05:17:26.066Z,13.85
2019-06-07T05:19:55.469Z,15.80
2019-06-07T05:22:25.086Z,14.33
2019-06-07T05:24:54.484Z,17.98
2019-06-07T05:27:23.952Z,14.18
2019-06-07T05:30:24.234Z,18.35
2019-06-07T05:32:24.491Z,17.10
2019-06-07T05:34:54.322Z,12.82
2019-06-07T05:37:24.130Z,11.83
2019-06-07T05:39:53.601Z,11.65
2019-06-07T05:42:23.105Z,15.95
2019-06-07T05:44:52.524Z,12.43
2019-06-07T05:47:21.969Z,14.58
2019-06-07T05:49:51.621Z,12.90
2019-06-07T05:52:21.622Z,14.18
2019-06-07T05:54:58.639Z,11.90
2019-06-07T05:57:28.204Z,12.68
2019-06-07T05:59:57.731Z,17.82
2019-06-07T06:02:27.121Z,12.73
2019-06-07T06:04:56.526Z,13.48
2019-06-07T06:07:25.898Z,15.70
2019-06-07T06:09:55.485Z,13.65
2019-06-07T06:12:35.218Z,15.83
2019-06-07T06:14:56.102Z,13.30
2019-06-07T06:17:25.585Z,11.15
2019-06-07T06:19:55.003Z,16.55
2019-06-07T06:22:24.839Z,14.40
2019-06-07T06:25:29.865Z,13.38
2019-06-07T06:28:03.204Z,12.10
2019-06-07T06:29:56.700Z,11.55
2019-06-07T06:32:53.847Z,14.93
2019-06-07T06:35:00.382Z,18.70
2019-06-07T06:37:29.887Z,12.53
2019-06-07T06:39:59.378Z,14.30
2019-06-07T06:42:28.983Z,19.87
2019-06-07T06:44:58.399Z,14.20
2019-06-07T06:47:27.899Z,14.20
2019-06-07T06:49:57.361Z,19.75
2019-06-07T06:52:27.170Z,11.18
2019-06-07T06:55:00.860Z,11.35
2019-06-07T06:57:27.961Z,11.85
2019-06-07T06:59:57.457Z,12.95
2019-06-07T07:02:26.868Z,11.22
2019-06-07T07:04:56.260Z,11.65
2019-06-07T07:07:27.433Z,11.90
2019-06-07T07:09:59.545Z,10.23
2019-06-07T07:12:31.755Z,12.45
2019-06-07T07:15:01.305Z,14.47
2019-06-07T07:17:47.500Z,14.93
2019-06-07T07:20:02.000Z,9.08
2019-06-07T07:22:31.542Z,13.55
2019-06-07T07:25:01.032Z,7.97
2019-06-07T07:27:30.585Z,10.45
2019-06-07T07:30:34.991Z,14.35
2019-06-07T07:32:32.512Z,11.57
2019-06-07T07:35:02.018Z,12.35
2019-06-07T07:37:31.568Z,8.85
2019-06-07T07:40:21.487Z,10.43
2019-06-07T07:42:33.439Z,12.10
2019-06-07T07:45:03.301Z,14.70
2019-06-07T07:47:32.651Z,11.00
2019-06-07T07:50:02.060Z,10.72
2019-06-07T07:52:31.959Z,11.45
2019-06-07T07:55:01.346Z,10.85
2019-06-07T07:57:30.755Z,9.43
2019-06-07T08:00:36.018Z,11.40
2019-06-07T08:02:32.999Z,17.48
2019-06-07T08:05:25.685Z,11.18
2019-06-07T08:07:33.471Z,11.40
2019-06-07T08:10:04.532Z,8.23
2019-06-07T08:12:55.724Z,7.45
2019-06-07T08:15:06.553Z,10.63
2019-06-07T08:17:36.405Z,7.33
2019-06-07T08:20:07.601Z,6.65
2019-06-07T08:22:37.089Z,7.70
2019-06-07T08:25:08.354Z,11.57
2019-06-07T08:27:37.788Z,8.38
2019-06-07T08:30:46.541Z,7.28
2019-06-07T08:32:42.477Z,7.40
2019-06-07T08:36:01.036Z,6.75
2019-06-07T08:38:15.210Z,13.35
2019-06-07T08:40:17.783Z,6.60
2019-06-07T08:43:04.557Z,5.65
2019-06-07T08:45:19.086Z,6.70
2019-06-07T08:47:56.512Z,5.28
2019-06-07T08:50:20.886Z,8.33
2019-06-07T08:52:56.038Z,6.28
2019-06-07T08:55:22.964Z,7.83
2019-06-07T08:58:01.211Z,7.83
2019-06-07T09:02:58.029Z,8.30
2019-06-07T09:05:26.464Z,5.03
2019-06-07T09:08:21.702Z,6.10
2019-06-07T09:10:27.069Z,6.03
2019-06-07T09:13:00.391Z,5.05
2019-06-07T09:15:27.591Z,9.13
2019-06-07T09:18:35.468Z,10.15
2019-06-07T09:20:43.412Z,5.60
2019-06-07T09:23:17.286Z,9.15
2019-06-07T09:25:56.628Z,8.43
2019-06-07T09:28:20.293Z,7.72
2019-06-07T09:30:47.594Z,6.10
2019-06-07T09:33:17.146Z,6.95
2019-06-07T09:35:46.549Z,8.78
2019-06-07T09:38:25.453Z,8.23
2019-06-07T09:40:47.029Z,5.53
2019-06-07T09:43:59.764Z,8.13
2019-06-07T09:45:47.548Z,7.65
2019-06-07T09:49:01.380Z,6.22
2019-06-07T09:50:48.534Z,5.70
2019-06-07T09:53:22.732Z,9.20
2019-06-07T09:55:49.421Z,7.53
2019-06-07T09:58:50.172Z,10.38
2019-06-07T10:00:50.162Z,10.30
2019-06-07T10:03:22.347Z,7.80
2019-06-07T10:05:50.815Z,10.90
2019-06-07T10:09:26.131Z,6.00
2019-06-07T10:10:51.412Z,6.80
2019-06-07T10:13:21.942Z,7.75
2019-06-07T10:15:53.648Z,7.15
2019-06-07T10:18:23.203Z,7.00
2019-06-07T10:20:52.756Z,6.00
2019-06-07T10:23:22.130Z,10.32
2019-06-07T10:25:51.949Z,12.55
2019-06-07T10:28:24.567Z,9.58
2019-06-07T10:30:54.219Z,9.03
2019-06-07T10:33:23.627Z,10.20
2019-06-07T10:35:53.022Z,4.37
2019-06-07T10:38:22.512Z,8.03
2019-06-07T10:40:52.143Z,7.05
2019-06-07T10:43:21.579Z,12.37
2019-06-07T10:45:51.103Z,8.38
2019-06-07T10:48:20.500Z,4.55
2019-06-07T10:50:50.010Z,7.97
2019-06-07T10:53:19.404Z,13.18
2019-06-07T10:55:49.335Z,8.43
2019-06-07T10:58:18.722Z,8.70
2019-06-07T11:00:48.275Z,5.65
2019-06-07T11:03:17.659Z,9.08
2019-06-07T11:05:47.062Z,8.05
2019-06-07T11:08:16.474Z,3.70
2019-06-07T11:10:45.853Z,9.98
2019-06-07T11:13:15.245Z,4.45
2019-06-07T11:15:44.700Z,8.58
2019-06-07T11:18:14.516Z,4.72
2019-06-07T11:20:44.149Z,5.60
2019-06-07T11:23:14.330Z,8.23
2019-06-07T11:25:43.769Z,5.45
2019-06-07T11:28:14.484Z,2.95
2019-06-07T11:30:44.222Z,7.00
2019-06-07T11:33:16.211Z,3.87
2019-06-07T11:35:44.764Z,3.92
2019-06-07T11:38:14.659Z,3.52
2019-06-07T11:40:44.181Z,6.78
2019-06-07T11:43:14.844Z,4.85
2019-06-07T11:45:44.391Z,7.92
2019-06-07T11:48:13.849Z,4.47
2019-06-07T11:50:43.334Z,4.92
2019-06-07T11:53:12.771Z,8.20
2019-06-07T11:55:42.189Z,7.80
2019-06-07T11:58:15.126Z,2.98
2019-06-07T12:00:42.686Z,10.40
2019-06-07T12:03:13.901Z,4.10
2019-06-07T12:05:43.435Z,6.58
2019-06-07T12:08:14.031Z,6.20
2019-06-07T12:10:43.502Z,6.60
2019-06-07T12:13:12.901Z,5.33
2019-06-07T12:15:42.316Z,3.87
2019-06-07T12:18:13.044Z,4.42
2019-06-07T12:20:42.486Z,4.42
2019-06-07T12:23:12.050Z,4.05
2019-06-07T12:25:41.562Z,4.67
2019-06-07T12:28:11.004Z,10.48
2019-06-07T12:30:40.369Z,3.95
2019-06-07T12:33:11.202Z,4.33
2019-06-07T12:35:40.743Z,4.80
2019-06-07T12:38:10.257Z,5.58
2019-06-07T12:40:39.655Z,6.60
2019-06-07T12:43:09.069Z,5.00
2019-06-07T12:45:44.876Z,6.25
2019-06-07T12:48:12.545Z,4.40
2019-06-07T12:50:42.997Z,4.60
2019-06-07T12:53:13.602Z,2.52
2019-06-07T12:55:43.232Z,7.28
2019-06-07T12:58:13.815Z,3.37
2019-06-07T13:00:43.315Z,7.97
2019-06-07T13:03:14.151Z,8.35
2019-06-07T13:05:43.683Z,5.75
2019-06-07T13:08:13.118Z,5.25
2019-06-07T13:10:42.515Z,5.22
2019-06-07T13:13:11.911Z,7.97
2019-06-07T13:15:41.305Z,4.95
2019-06-07T13:18:14.833Z,9.50
2019-06-07T13:20:42.749Z,7.28
2019-06-07T13:23:12.187Z,5.80
2019-06-07T13:25:46.501Z,4.42
2019-06-07T13:28:12.750Z,5.45
2019-06-07T13:30:42.173Z,3.95
2019-06-07T13:33:11.549Z,4.35
2019-06-07T13:35:41.010Z,5.83
2019-06-07T13:38:13.123Z,6.30
2019-06-07T13:40:42.488Z,3.15
2019-06-07T13:43:11.882Z,6.33
2019-06-07T13:45:41.301Z,11.68
2019-06-07T13:48:12.223Z,6.22
2019-06-07T13:50:41.567Z,5.92
2019-06-07T13:53:10.960Z,4.95
2019-06-07T13:55:40.341Z,6.17
2019-06-07T13:58:09.747Z,9.75
2019-06-07T14:00:39.208Z,5.60
2019-06-07T14:03:11.376Z,10.10
2019-06-07T14:05:40.819Z,2.92
2019-06-07T14:08:10.209Z,8.60
2019-06-07T14:10:39.615Z,3.52
2019-06-07T14:13:09.131Z,4.12
2019-06-07T14:15:38.732Z,4.55
2019-06-07T14:18:08.107Z,9.98
2019-06-07T14:20:38.687Z,3.80
2019-06-07T14:23:09.197Z,5.65
2019-06-07T14:25:38.630Z,5.70
2019-06-07T14:28:11.549Z,14.40
2019-06-07T14:30:39.176Z,5.17
2019-06-07T14:33:09.531Z,3.67
2019-06-07T14:35:38.999Z,9.23
2019-06-07T14:38:08.722Z,3.95
2019-06-07T14:40:38.106Z,6.90
2019-06-07T14:43:07.477Z,4.35
2019-06-07T14:45:36.850Z,5.30
2019-06-07T14:48:06.414Z,13.35
2019-06-07T14:50:35.817Z,10.03
2019-06-07T14:53:05.417Z,4.28
2019-06-07T14:55:35.159Z,13.32
2019-06-07T14:58:04.836Z,11.90
2019-06-07T15:00:44.702Z,7.37
2019-06-07T15:03:14.098Z,9.85
2019-06-07T15:05:44.033Z,9.43
2019-06-07T15:08:13.482Z,6.30
2019-06-07T15:10:42.858Z,3.02
2019-06-07T15:13:12.221Z,5.17
2019-06-07T15:15:41.619Z,8.53
2019-06-07T15:18:10.977Z,0.90
2019-06-07T15:20:40.530Z,5.78
2019-06-07T15:23:09.896Z,3.80
2019-06-07T15:25:39.718Z,3.70
2019-06-07T15:28:09.067Z,3.75
2019-06-07T15:30:38.444Z,2.30
2019-06-07T15:33:07.842Z,1.85
2019-06-07T15:35:38.913Z,2.40
2019-06-07T15:38:08.408Z,3.10
2019-06-07T15:40:39.572Z,0.75
2019-06-07T15:43:09.234Z,1.50
2019-06-07T15:45:39.744Z,3.72
2019-06-07T15:48:09.282Z,2.98
2019-06-07T15:50:38.716Z,4.60
2019-06-07T15:53:08.074Z,4.00
2019-06-07T15:55:43.046Z,5.30
2019-06-07T15:58:09.196Z,3.45
2019-06-07T16:00:40.594Z,1.30
2019-06-07T16:03:09.773Z,3.87
2019-06-07T16:05:40.504Z,3.60
2019-06-07T16:08:10.384Z,4.35
2019-06-07T16:10:40.982Z,2.70
2019-06-07T16:13:10.772Z,1.80
2019-06-07T16:15:41.387Z,3.50
2019-06-07T16:18:11.132Z,3.87
2019-06-07T16:20:41.513Z,2.80
2019-06-07T16:23:11.177Z,3.85
2019-06-07T16:25:40.612Z,4.35
2019-06-07T16:28:10.021Z,1.45
2019-06-07T16:30:40.514Z,1.30
2019-06-07T16:33:10.049Z,2.37
2019-06-07T16:35:39.418Z,2.42
2019-06-07T16:38:08.812Z,4.70
2019-06-07T16:40:38.458Z,1.75
2019-06-07T16:43:16.745Z,5.50
2019-06-07T16:45:38.989Z,2.27
2019-06-07T16:48:08.371Z,2.25
2019-06-07T16:50:38.774Z,1.45
2019-06-07T16:53:08.207Z,2.45
2019-06-07T16:55:38.693Z,1.10
2019-06-07T16:58:08.133Z,1.55
2019-06-07T17:00:38.659Z,1.65
2019-06-07T17:03:08.652Z,2.08
2019-06-07T17:05:39.483Z,1.57
2019-06-07T17:08:09.253Z,4.22
2019-06-07T17:10:40.001Z,1.60
2019-06-07T17:13:09.536Z,2.05
2019-06-07T17:15:38.975Z,1.77
2019-06-07T17:18:08.421Z,1.12
2019-06-07T17:20:38.981Z,1.25
2019-06-07T17:23:08.502Z,1.67
2019-06-07T17:25:39.482Z,1.77
2019-06-07T17:28:09.065Z,3.75
2019-06-07T17:30:39.701Z,3.20
2019-06-07T17:33:09.266Z,3.77
2019-06-07T17:35:40.050Z,3.65
2019-06-07T17:38:09.594Z,4.00
2019-06-07T17:40:39.048Z,2.08
2019-06-07T17:43:08.470Z,3.37
2019-06-07T17:45:37.856Z,3.00
2019-06-07T17:48:07.298Z,2.87
2019-06-07T17:50:37.569Z,1.90
2019-06-07T17:53:07.045Z,2.77
2019-06-07T17:55:36.486Z,1.92
2019-06-07T17:58:06.232Z,3.00
2019-06-07T18:00:44.641Z,1.98
2019-06-07T18:03:13.951Z,3.85
2019-06-07T18:05:45.154Z,2.33
2019-06-07T18:08:15.554Z,2.33
2019-06-07T18:10:45.700Z,2.00
2019-06-07T18:13:15.152Z,2.37
2019-06-07T18:15:52.967Z,4.20
2019-06-07T18:18:19.649Z,4.17
2019-06-07T18:20:49.372Z,7.58
2019-06-07T18:23:18.718Z,1.75
2019-06-07T18:25:50.548Z,9.53
2019-06-07T18:28:19.168Z,6.12
2019-06-07T18:30:48.778Z,2.65
2019-06-07T18:33:18.280Z,2.60
2019-06-07T18:35:48.896Z,4.78
2019-06-07T18:38:18.406Z,7.62
2019-06-07T18:40:49.128Z,5.12
2019-06-07T18:43:18.628Z,2.55
2019-06-07T18:45:49.238Z,2.72
2019-06-07T18:48:18.852Z,5.40
2019-06-07T18:50:48.610Z,4.62
2019-06-07T18:53:18.097Z,6.03
2019-06-07T18:55:47.821Z,2.70
2019-06-07T18:58:17.479Z,4.50
2019-06-07T19:00:47.326Z,3.17
2019-06-07T19:03:16.963Z,2.87
2019-06-07T19:05:46.351Z,2.95
2019-06-07T19:08:15.725Z,1.80
2019-06-07T19:10:45.269Z,2.35
2019-06-07T19:13:14.688Z,4.42
2019-06-07T19:15:44.176Z,5.97
2019-06-07T19:18:13.540Z,2.80
2019-06-07T19:20:42.941Z,5.80
2019-06-07T19:23:12.316Z,2.72
2019-06-07T19:25:41.705Z,3.83
2019-06-07T19:28:11.193Z,2.10
2019-06-07T19:30:40.732Z,2.75
2019-06-07T19:33:10.129Z,1.92
2019-06-07T19:35:39.518Z,4.05
2019-06-07T19:38:09.093Z,3.40
2019-06-07T19:40:38.452Z,3.17
2019-06-07T19:43:07.828Z,7.83
2019-06-07T19:45:37.212Z,3.75
2019-06-07T19:48:06.684Z,2.72
2019-06-07T19:50:36.270Z,5.58
2019-06-07T19:53:05.817Z,6.42
2019-06-07T19:55:35.373Z,1.30
2019-06-07T19:58:04.846Z,4.25
2019-06-07T20:00:34.375Z,6.03
2019-06-07T20:03:04.562Z,5.45
2019-06-07T20:05:34.400Z,6.05
2019-06-07T20:08:04.914Z,4.83
2019-06-07T20:10:34.541Z,3.80
2019-06-07T20:13:05.143Z,4.17
2019-06-07T20:15:34.917Z,3.83
2019-06-07T20:18:05.559Z,2.25
2019-06-07T20:20:35.115Z,3.77
2019-06-07T20:23:05.241Z,4.08
2019-06-07T20:25:34.900Z,7.75
2019-06-07T20:28:05.561Z,6.92
2019-06-07T20:30:35.448Z,7.03
2019-06-07T20:33:06.147Z,4.35
2019-06-07T20:35:35.690Z,6.30
2019-06-07T20:38:05.725Z,7.37
2019-06-07T20:40:35.368Z,4.45
2019-06-07T20:43:05.763Z,4.70
2019-06-07T20:45:35.426Z,2.72
2019-06-07T20:48:06.315Z,8.68
2019-06-07T20:50:36.088Z,3.95
2019-06-07T20:53:07.076Z,2.67
2019-06-07T20:55:36.564Z,6.00
2019-06-07T20:58:07.292Z,3.95
2019-06-07T21:00:36.753Z,2.20
2019-06-07T21:03:07.401Z,6.40
2019-06-07T21:05:36.881Z,6.42
2019-06-07T21:08:10.669Z,3.83
2019-06-07T21:10:37.527Z,6.60
2019-06-07T21:13:08.129Z,2.00
2019-06-07T21:15:48.487Z,6.65
2019-06-07T21:18:16.896Z,5.03
2019-06-07T21:20:40.050Z,6.75
2019-06-07T21:23:09.424Z,6.03
2019-06-07T21:25:38.825Z,3.80
2019-06-07T21:28:09.335Z,5.37
2019-06-07T21:30:38.942Z,5.92
2019-06-07T21:33:09.606Z,8.23
2019-06-07T21:35:39.113Z,5.28
2019-06-07T21:38:09.861Z,1.82
2019-06-07T21:40:39.404Z,4.85
2019-06-07T21:43:08.829Z,9.60
2019-06-07T21:45:38.312Z,3.83
2019-06-07T21:48:08.827Z,10.70
2019-06-07T21:50:39.269Z,15.03
2019-06-07T21:53:08.704Z,4.33
2019-06-07T21:55:38.092Z,2.25
2019-06-07T21:58:09.011Z,2.25
2019-06-07T22:00:53.548Z,7.10
2019-06-07T22:03:24.200Z,4.65
2019-06-07T22:05:53.694Z,2.00
2019-06-07T22:08:23.140Z,8.48
2019-06-07T22:10:52.532Z,3.62
2019-06-07T22:13:22.170Z,2.80
2019-06-07T22:15:51.641Z,4.47
2019-06-07T22:18:21.085Z,9.35
2019-06-07T22:20:50.483Z,4.62
2019-06-07T22:23:19.959Z,6.75
2019-06-07T22:25:49.630Z,8.33
2019-06-07T22:28:18.973Z,8.75
2019-06-07T22:30:48.352Z,5.92
2019-06-07T22:33:18.988Z,7.17
2019-06-07T22:35:48.481Z,6.90
2019-06-07T22:38:18.466Z,6.05
2019-06-07T22:40:47.788Z,3.35
2019-06-07T22:43:18.812Z,6.55
2019-06-07T22:45:48.255Z,8.23
2019-06-07T22:48:17.705Z,3.95
2019-06-07T22:50:47.207Z,7.87
2019-06-07T22:53:17.618Z,6.78
2019-06-07T22:55:48.883Z,6.75
2019-06-07T22:58:18.953Z,6.70
2019-06-07T23:00:48.484Z,5.28
2019-06-07T23:03:19.127Z,6.55
2019-06-07T23:05:48.544Z,5.70
2019-06-07T23:08:19.050Z,5.40
2019-06-07T23:10:48.685Z,7.28
2019-06-07T23:13:19.564Z,3.67
2019-06-07T23:15:49.185Z,5.17
2019-06-07T23:18:19.735Z,3.83
2019-06-07T23:20:49.510Z,9.38
2019-06-07T23:23:19.997Z,7.47
2019-06-07T23:25:49.740Z,5.70
2019-06-07T23:28:20.582Z,18.82
2019-06-07T23:30:50.161Z,10.93
2019-06-07T23:33:22.828Z,5.03
2019-06-07T23:35:52.320Z,4.15
2019-06-07T23:38:21.752Z,14.38
2019-06-07T23:40:51.222Z,6.30
2019-06-07T23:43:21.588Z,3.52
2019-06-07T23:45:51.082Z,5.80
2019-06-07T23:48:21.554Z,4.42
2019-06-07T23:50:51.435Z,8.60
2019-06-07T23:53:29.866Z,7.12
2019-06-07T23:55:59.360Z,7.87
2019-06-07T23:58:31.978Z,9.98
